createdAt,value
2018-05-19T00:00:28.000Z,29.2
2018-05-19T00:01:28.000Z,29.3
2018-05-19T00:02:28.000Z,29.3
2018-05-19T00:04:28.000Z,29.4
2018-05-19T00:06:28.000Z,29.3
2018-05-19T00:07:28.000Z,29.3
2018-05-19T00:08:28.000Z,29.3
2018-05-19T00:09:28.000Z,29.4
2018-05-19T00:10:28.000Z,29.4
2018-05-19T00:12:28.000Z,29.4
2018-05-19T00:13:28.000Z,29.4
2018-05-19T00:14:28.000Z,29.4
2018-05-19T00:16:28.000Z,29.4
2018-05-19T00:18:28.000Z,29.4
2018-05-19T00:19:28.000Z,29.3
2018-05-19T00:21:12.000Z,29.3
2018-05-19T00:22:28.000Z,29.3
2018-05-19T00:24:28.000Z,29.2
2018-05-19T00:26:28.000Z,29.1
2018-05-19T00:28:28.000Z,29
2018-05-19T00:29:28.000Z,28.9
2018-05-19T00:31:28.000Z,29
2018-05-19T00:33:28.000Z,29
2018-05-19T00:34:28.000Z,29
2018-05-19T00:36:12.000Z,29
2018-05-19T00:37:28.000Z,29
2018-05-19T00:38:28.000Z,29
2018-05-19T00:39:28.000Z,29.1
2018-05-19T00:41:28.000Z,29.1
2018-05-19T00:42:28.000Z,29.2
2018-05-19T00:44:28.000Z,29.2
2018-05-19T00:45:28.000Z,29.2
2018-05-19T00:46:28.000Z,29.2
2018-05-19T00:48:28.000Z,29.1
2018-05-19T00:49:28.000Z,29.1
2018-05-19T00:51:27.000Z,29.1
2018-05-19T00:53:27.000Z,29.1
2018-05-19T00:55:27.000Z,29
2018-05-19T00:56:27.000Z,29
2018-05-19T00:57:27.000Z,29
2018-05-19T00:58:27.000Z,29.1
2018-05-19T01:00:27.000Z,29.1
2018-05-19T01:01:27.000Z,29
2018-05-19T01:02:27.000Z,29.1
2018-05-19T01:03:27.000Z,29.1
2018-05-19T01:05:12.000Z,29.1
2018-05-19T01:06:27.000Z,29.1
2018-05-19T01:08:27.000Z,29
2018-05-19T01:09:27.000Z,29
2018-05-19T01:11:27.000Z,29
2018-05-19T01:13:27.000Z,28.9
2018-05-19T01:14:27.000Z,28.9
2018-05-19T01:16:27.000Z,28.9
2018-05-19T01:17:27.000Z,29
2018-05-19T01:19:27.000Z,28.9
2018-05-19T01:20:27.000Z,28.9
2018-05-19T01:21:27.000Z,29
2018-05-19T01:23:12.000Z,29.1
2018-05-19T01:24:27.000Z,29
2018-05-19T01:25:27.000Z,29
2018-05-19T01:27:27.000Z,29
2018-05-19T01:29:12.000Z,29
2018-05-19T01:30:27.000Z,29
2018-05-19T01:31:27.000Z,29
2018-05-19T01:33:27.000Z,29
2018-05-19T01:35:27.000Z,28.9
2018-05-19T01:36:27.000Z,28.9
2018-05-19T01:37:27.000Z,28.9
2018-05-19T01:39:27.000Z,29
2018-05-19T01:41:27.000Z,29
2018-05-19T01:43:27.000Z,29
2018-05-19T01:44:27.000Z,29
2018-05-19T01:46:27.000Z,29
2018-05-19T01:48:27.000Z,29
2018-05-19T01:49:27.000Z,29
2018-05-19T01:51:27.000Z,28.9
2018-05-19T01:53:27.000Z,28.9
2018-05-19T01:54:28.000Z,28.9
2018-05-19T01:56:28.000Z,28.9
2018-05-19T01:58:28.000Z,28.8
2018-05-19T01:59:28.000Z,28.8
2018-05-19T02:00:28.000Z,28.9
2018-05-19T02:01:28.000Z,28.9
2018-05-19T02:03:28.000Z,29
2018-05-19T02:04:28.000Z,29
2018-05-19T02:05:28.000Z,29.1
2018-05-19T02:06:28.000Z,29.1
2018-05-19T02:08:13.000Z,29.1
2018-05-19T02:09:28.000Z,29.1
2018-05-19T02:10:28.000Z,29.1
2018-05-19T02:12:28.000Z,29.1
2018-05-19T02:13:28.000Z,29.1
2018-05-19T02:15:28.000Z,29
2018-05-19T02:17:28.000Z,28.9
2018-05-19T02:18:28.000Z,28.9
2018-05-19T02:20:28.000Z,29
2018-05-19T02:21:28.000Z,29
2018-05-19T02:23:13.000Z,29
2018-05-19T02:26:59.000Z,28.5
2018-05-19T02:27:59.000Z,28.4
2018-05-19T02:29:43.000Z,28.5
2018-05-19T02:30:59.000Z,28.5
2018-05-19T02:32:59.000Z,28.5
2018-05-19T02:33:59.000Z,28.6
2018-05-19T02:34:59.000Z,28.7
2018-05-19T02:36:59.000Z,28.7
2018-05-19T02:38:59.000Z,28.7
2018-05-19T02:40:59.000Z,28.6
2018-05-19T02:41:59.000Z,28.6
2018-05-19T02:43:43.000Z,28.7
2018-05-19T02:44:59.000Z,28.7
2018-05-19T02:45:59.000Z,28.7
2018-05-19T02:46:59.000Z,28.8
2018-05-19T02:48:59.000Z,28.9
2018-05-19T02:49:59.000Z,28.9
2018-05-19T02:51:59.000Z,29
2018-05-19T02:53:59.000Z,28.9
2018-05-19T02:55:59.000Z,28.9
2018-05-19T02:57:43.000Z,28.9
2018-05-19T02:58:58.000Z,28.8
2018-05-19T02:59:58.000Z,28.8
2018-05-19T03:01:58.000Z,28.8
2018-05-19T03:02:58.000Z,28.9
2018-05-19T03:04:58.000Z,28.9
2018-05-19T03:05:58.000Z,28.9
2018-05-19T03:07:43.000Z,28.9
2018-05-19T03:08:58.000Z,28.9
2018-05-19T03:10:43.000Z,28.9
2018-05-19T03:11:58.000Z,28.8
2018-05-19T03:12:58.000Z,28.8
2018-05-19T03:14:58.000Z,28.8
2018-05-19T03:15:58.000Z,28.9
2018-05-19T03:17:43.000Z,28.9
2018-05-19T03:18:58.000Z,28.9
2018-05-19T03:20:43.000Z,28.9
2018-05-19T03:21:58.000Z,28.8
2018-05-19T03:23:58.000Z,28.7
2018-05-19T03:25:58.000Z,28.7
2018-05-19T03:27:58.000Z,28.6
2018-05-19T03:28:58.000Z,28.6
2018-05-19T03:30:58.000Z,28.7
2018-05-19T03:31:58.000Z,28.7
2018-05-19T03:33:58.000Z,28.7
2018-05-19T03:35:58.000Z,28.7
2018-05-19T03:36:58.000Z,28.7
2018-05-19T03:38:43.000Z,28.7
2018-05-19T03:39:58.000Z,28.7
2018-05-19T03:41:58.000Z,28.8
2018-05-19T03:42:58.000Z,28.8
2018-05-19T03:44:58.000Z,28.8
2018-05-19T03:46:58.000Z,28.8
2018-05-19T03:48:43.000Z,28.8
2018-05-19T03:49:58.000Z,28.7
2018-05-19T03:51:58.000Z,28.7
2018-05-19T03:52:58.000Z,28.7
2018-05-19T03:54:43.000Z,28.8
2018-05-19T03:55:58.000Z,28.7
2018-05-19T03:57:43.000Z,28.8
2018-05-19T03:58:58.000Z,28.7
2018-05-19T04:00:58.000Z,28.6
2018-05-19T04:01:58.000Z,28.6
2018-05-19T04:02:58.000Z,28.7
2018-05-19T04:03:58.000Z,28.7
2018-05-19T04:05:58.000Z,28.8
2018-05-19T04:07:42.000Z,28.8
2018-05-19T04:08:58.000Z,28.7
2018-05-19T04:10:58.000Z,28.7
2018-05-19T04:11:58.000Z,28.7
2018-05-19T04:13:58.000Z,28.7
2018-05-19T04:14:58.000Z,28.7
2018-05-19T04:16:58.000Z,28.8
2018-05-19T04:17:58.000Z,28.8
2018-05-19T04:19:58.000Z,28.8
2018-05-19T04:20:58.000Z,28.8
2018-05-19T04:22:58.000Z,28.8
2018-05-19T04:24:58.000Z,28.8
2018-05-19T04:26:58.000Z,28.7
2018-05-19T04:28:58.000Z,28.7
2018-05-19T04:29:58.000Z,28.7
2018-05-19T04:30:58.000Z,28.8
2018-05-19T04:31:58.000Z,28.9
2018-05-19T04:33:58.000Z,29
2018-05-19T04:35:58.000Z,28.9
2018-05-19T04:37:58.000Z,28.9
2018-05-19T04:39:58.000Z,28.8
2018-05-19T04:40:58.000Z,28.8
2018-05-19T04:41:58.000Z,28.9
2018-05-19T04:43:58.000Z,29
2018-05-19T04:44:58.000Z,29
2018-05-19T04:45:58.000Z,29
2018-05-19T04:47:58.000Z,29
2018-05-19T04:48:58.000Z,29
2018-05-19T04:50:58.000Z,29
2018-05-19T04:51:58.000Z,29.1
2018-05-19T04:52:58.000Z,29.1
2018-05-19T04:54:58.000Z,29
2018-05-19T04:56:58.000Z,29
2018-05-19T04:58:58.000Z,28.9
2018-05-19T05:00:58.000Z,28.9
2018-05-19T05:01:58.000Z,28.9
2018-05-19T05:03:58.000Z,28.9
2018-05-19T05:04:58.000Z,28.9
2018-05-19T05:06:58.000Z,29
2018-05-19T05:07:58.000Z,29
2018-05-19T05:09:58.000Z,29.1
2018-05-19T05:11:58.000Z,29
2018-05-19T05:12:58.000Z,29
2018-05-19T05:13:58.000Z,29
2018-05-19T05:14:58.000Z,29
2018-05-19T05:15:58.000Z,29.1
2018-05-19T05:17:58.000Z,29.1
2018-05-19T05:18:58.000Z,29.1
2018-05-19T05:20:58.000Z,29.1
2018-05-19T05:21:58.000Z,29.1
2018-05-19T05:22:58.000Z,29.1
2018-05-19T05:23:58.000Z,29.2
2018-05-19T05:25:58.000Z,29.2
2018-05-19T05:27:58.000Z,29.2
2018-05-19T05:29:58.000Z,29.1
2018-05-19T05:30:58.000Z,29.1
2018-05-19T05:32:43.000Z,29.2
2018-05-19T05:33:58.000Z,29.1
2018-05-19T05:34:58.000Z,29.2
2018-05-19T05:36:58.000Z,29.2
2018-05-19T05:37:58.000Z,29.2
2018-05-19T05:39:58.000Z,29.3
2018-05-19T05:41:43.000Z,29.3
2018-05-19T05:42:58.000Z,29.2
2018-05-19T05:43:58.000Z,29.3
2018-05-19T05:44:58.000Z,29.3
2018-05-19T05:46:58.000Z,29.3
2018-05-19T05:47:58.000Z,29.3
2018-05-19T05:48:58.000Z,29.3
2018-05-19T05:50:58.000Z,29.4
2018-05-19T05:52:58.000Z,29.3
2018-05-19T05:53:58.000Z,29.3
2018-05-19T05:55:58.000Z,29.3
2018-05-19T05:57:58.000Z,29.3
2018-05-19T05:59:58.000Z,29.2
2018-05-19T06:01:43.000Z,29.3
2018-05-19T06:02:58.000Z,29.3
2018-05-19T06:03:58.000Z,29.3
2018-05-19T06:05:58.000Z,29.4
2018-05-19T06:07:43.000Z,29.4
2018-05-19T06:08:58.000Z,29.4
2018-05-19T06:09:58.000Z,29.5
2018-05-19T06:11:58.000Z,29.5
2018-05-19T06:12:58.000Z,29.6
2018-05-19T06:13:58.000Z,29.6
2018-05-19T06:14:58.000Z,29.7
2018-05-19T06:16:58.000Z,29.8
2018-05-19T06:18:58.000Z,29.8
2018-05-19T06:19:58.000Z,29.8
2018-05-19T06:21:58.000Z,29.9
2018-05-19T06:22:58.000Z,29.9
2018-05-19T06:24:58.000Z,30
2018-05-19T06:25:58.000Z,30
2018-05-19T06:27:58.000Z,30
2018-05-19T06:29:58.000Z,30
2018-05-19T06:31:58.000Z,30
2018-05-19T06:33:58.000Z,29.9
2018-05-19T06:34:58.000Z,29.9
2018-05-19T07:11:32.000Z,28.2
2018-05-19T07:13:17.000Z,28.5
2018-05-19T07:14:32.000Z,28.7
2018-05-19T07:15:32.000Z,28.9
2018-05-19T07:17:32.000Z,29.3
2018-05-19T07:18:32.000Z,29.4
2018-05-19T07:19:32.000Z,29.6
2018-05-19T07:21:32.000Z,30
2018-05-19T07:22:32.000Z,30.1
2018-05-19T07:23:32.000Z,30.2
2018-05-19T07:25:32.000Z,30.4
2018-05-19T07:26:32.000Z,30.5
2018-05-19T07:27:32.000Z,30.6
2018-05-19T07:29:32.000Z,30.8
2018-05-19T07:31:32.000Z,30.8
2018-05-19T07:32:32.000Z,30.9
2018-05-19T07:33:32.000Z,30.9
2018-05-19T07:35:32.000Z,31
2018-05-19T07:36:32.000Z,31.1
2018-05-19T07:38:32.000Z,31.2
2018-05-19T07:39:32.000Z,31.2
2018-05-19T07:40:32.000Z,31.3
2018-05-19T07:42:32.000Z,31.3
2018-05-19T07:44:32.000Z,31.3
2018-05-19T07:46:32.000Z,31.2
2018-05-19T07:48:17.000Z,31.2
2018-05-19T07:49:32.000Z,31.1
2018-05-19T07:50:32.000Z,31.2
2018-05-19T07:52:32.000Z,31.2
2018-05-19T07:53:32.000Z,31.3
2018-05-19T07:54:32.000Z,31.3
2018-05-19T07:56:32.000Z,31.3
2018-05-19T07:58:32.000Z,31.2
2018-05-19T08:00:32.000Z,31.1
2018-05-19T08:01:32.000Z,31.1
2018-05-19T08:02:32.000Z,31.2
2018-05-19T08:04:32.000Z,31.3
2018-05-19T08:06:32.000Z,31.3
2018-05-19T08:07:32.000Z,31.3
2018-05-19T08:08:32.000Z,31.4
2018-05-19T08:09:32.000Z,31.4
2018-05-19T08:11:32.000Z,31.5
2018-05-19T08:12:32.000Z,31.5
2018-05-19T08:14:32.000Z,31.6
2018-05-19T08:16:32.000Z,31.5
2018-05-19T08:18:32.000Z,31.4
2018-05-19T08:19:32.000Z,31.4
2018-05-19T08:20:32.000Z,31.4
2018-05-19T08:21:32.000Z,31.5
2018-05-19T08:23:32.000Z,31.7
2018-05-19T08:24:32.000Z,31.7
2018-05-19T08:26:32.000Z,31.8
2018-05-19T08:28:32.000Z,31.8
2018-05-19T08:30:32.000Z,31.8
2018-05-19T08:32:17.000Z,31.8
2018-05-19T08:33:32.000Z,31.8
2018-05-19T08:35:32.000Z,31.8
2018-05-19T08:37:32.000Z,31.8
2018-05-19T08:38:32.000Z,31.8
2018-05-19T08:40:32.000Z,31.8
2018-05-19T08:42:32.000Z,31.8
2018-05-19T08:43:32.000Z,31.8
2018-05-19T08:44:32.000Z,32
2018-05-19T08:48:18.000Z,31.8
2018-05-19T08:49:18.000Z,31.8
2018-05-19T08:51:18.000Z,31.8
2018-05-19T08:53:03.000Z,31.9
2018-05-19T08:54:18.000Z,31.9
2018-05-19T08:55:18.000Z,32
2018-05-19T08:57:18.000Z,32
2018-05-19T08:59:18.000Z,32
2018-05-19T09:01:18.000Z,32
2018-05-19T09:03:18.000Z,31.9
2018-05-19T09:04:18.000Z,32
2018-05-19T09:05:18.000Z,32.2
2018-05-19T09:07:18.000Z,32.3
2018-05-19T09:08:18.000Z,32.3
2018-05-19T09:09:18.000Z,32.4
2018-05-19T09:11:03.000Z,32.5
2018-05-19T09:12:18.000Z,32.5
2018-05-19T09:13:18.000Z,32.5
2018-05-19T09:14:18.000Z,32.6
2018-05-19T09:16:18.000Z,32.6
2018-05-19T09:18:18.000Z,32.6
2018-05-19T09:20:18.000Z,32.9
2018-05-19T09:21:18.000Z,33
2018-05-19T09:23:18.000Z,33.1
2018-05-19T09:24:18.000Z,33.1
2018-05-19T09:25:18.000Z,33.1
2018-05-19T09:27:18.000Z,33.1
2018-05-19T09:29:18.000Z,33
2018-05-19T09:31:18.000Z,32.8
2018-05-19T09:32:18.000Z,32.8
2018-05-19T09:33:18.000Z,32.8
2018-05-19T09:35:18.000Z,32.7
2018-05-19T09:36:18.000Z,32.6
2018-05-19T09:38:18.000Z,32.6
2018-05-19T09:39:18.000Z,32.6
2018-05-19T09:41:18.000Z,32.5
2018-05-19T09:42:18.000Z,32.5
2018-05-19T09:44:18.000Z,32.5
2018-05-19T09:45:18.000Z,32.5
2018-05-19T09:47:02.000Z,32.5
2018-05-19T09:48:18.000Z,32.5
2018-05-19T09:50:18.000Z,32.4
2018-05-19T09:52:18.000Z,32.4
2018-05-19T09:53:18.000Z,32.5
2018-05-19T09:55:18.000Z,32.5
2018-05-19T09:56:18.000Z,32.5
2018-05-19T09:58:18.000Z,32.6
2018-05-19T10:00:18.000Z,32.6
2018-05-19T10:01:18.000Z,32.5
2018-05-19T10:03:18.000Z,32.1
2018-05-19T10:04:18.000Z,32
2018-05-19T10:06:18.000Z,31.7
2018-05-19T10:07:18.000Z,31.7
2018-05-19T10:08:18.000Z,31.6
2018-05-19T10:10:18.000Z,31.5
2018-05-19T10:11:18.000Z,31.4
2018-05-19T10:12:18.000Z,31.4
2018-05-19T10:14:18.000Z,31.3
2018-05-19T10:15:18.000Z,31.3
2018-05-19T10:17:18.000Z,31.2
2018-05-19T10:18:18.000Z,31.2
2018-05-19T10:20:02.000Z,31.2
2018-05-19T10:21:18.000Z,31.1
2018-05-19T10:23:03.000Z,31
2018-05-19T10:24:18.000Z,30.9
2018-05-19T10:26:03.000Z,30.9
2018-05-19T10:27:18.000Z,30.8
2018-05-19T10:29:18.000Z,30.7
2018-05-19T10:30:18.000Z,30.7
2018-05-19T10:32:18.000Z,30.7
2018-05-19T10:33:18.000Z,30.7
2018-05-19T10:35:18.000Z,30.7
2018-05-19T10:37:18.000Z,30.7
2018-05-19T10:38:18.000Z,30.7
2018-05-19T10:40:03.000Z,30.7
2018-05-19T10:41:18.000Z,30.7
2018-05-19T10:42:18.000Z,30.7
2018-05-19T10:44:18.000Z,30.7
2018-05-19T10:46:18.000Z,30.6
2018-05-19T10:48:18.000Z,30.6
2018-05-19T10:50:18.000Z,30.5
2018-05-19T10:52:18.000Z,30.4
2018-05-19T10:54:18.000Z,30.3
2018-05-19T10:55:18.000Z,30.3
2018-05-19T10:56:18.000Z,30.4
2018-05-19T10:58:18.000Z,30.4
2018-05-19T10:59:18.000Z,30.4
2018-05-19T11:01:18.000Z,30.4
2018-05-19T11:02:18.000Z,30.5
2018-05-19T11:03:18.000Z,30.5
2018-05-19T11:05:18.000Z,30.5
2018-05-19T11:07:18.000Z,30.4
2018-05-19T11:08:18.000Z,30.4
2018-05-19T11:10:18.000Z,30.4
2018-05-19T11:12:18.000Z,30.3
2018-05-19T11:14:03.000Z,30.3
2018-05-19T11:15:18.000Z,30.3
2018-05-19T11:16:18.000Z,30.3
2018-05-19T11:18:18.000Z,30.3
2018-05-19T11:20:18.000Z,30.3
2018-05-19T11:22:03.000Z,30.3
2018-05-19T11:23:18.000Z,30.2
2018-05-19T11:24:18.000Z,30.3
2018-05-19T11:25:18.000Z,30.3
2018-05-19T11:27:18.000Z,30.4
2018-05-19T11:29:03.000Z,30.4
2018-05-19T11:30:18.000Z,30.3
2018-05-19T11:32:18.000Z,30.3
2018-05-19T11:33:18.000Z,30.3
2018-05-19T11:35:18.000Z,30.4
2018-05-19T11:37:18.000Z,30.4
2018-05-19T11:38:18.000Z,30.4
2018-05-19T11:39:18.000Z,30.4
2018-05-19T11:41:18.000Z,30.5
2018-05-19T11:42:18.000Z,30.5
2018-05-19T11:43:18.000Z,30.6
2018-05-19T11:44:18.000Z,30.6
2018-05-19T11:46:18.000Z,30.6
2018-05-19T11:47:18.000Z,30.6
2018-05-19T11:48:18.000Z,30.6
2018-05-19T11:49:18.000Z,30.7
2018-05-19T11:50:18.000Z,30.7
2018-05-19T11:52:18.000Z,30.7
2018-05-19T11:54:18.000Z,30.6
2018-05-19T11:55:18.000Z,30.6
2018-05-19T11:56:18.000Z,30.6
2018-05-19T11:58:18.000Z,30.5
2018-05-19T11:59:18.000Z,30.5
2018-05-19T12:01:18.000Z,30.5
2018-05-19T12:03:18.000Z,30.5
2018-05-19T12:05:18.000Z,30.4
2018-05-19T12:06:18.000Z,30.4
2018-05-19T12:08:18.000Z,30.5
2018-05-19T12:10:18.000Z,30.5
2018-05-19T12:11:18.000Z,30.5
2018-05-19T12:12:18.000Z,30.5
2018-05-19T12:14:18.000Z,30.6
2018-05-19T12:15:18.000Z,30.6
2018-05-19T12:16:18.000Z,30.6
2018-05-19T12:17:18.000Z,30.7
2018-05-19T12:19:18.000Z,30.7
2018-05-19T12:21:18.000Z,30.6
2018-05-19T12:23:18.000Z,30.5
2018-05-19T12:27:04.000Z,30
2018-05-19T12:28:04.000Z,30
2018-05-19T12:30:04.000Z,30
2018-05-19T12:31:04.000Z,30.1
2018-05-19T12:33:04.000Z,30.2
2018-05-19T12:34:04.000Z,30.3
2018-05-19T12:35:04.000Z,30.3
2018-05-19T12:37:04.000Z,30.4
2018-05-19T12:38:04.000Z,30.4
2018-05-19T12:40:04.000Z,30.5
2018-05-19T12:41:04.000Z,30.4
2018-05-19T12:42:04.000Z,30.4
2018-05-19T12:43:04.000Z,30.5
2018-05-19T12:45:04.000Z,30.5
2018-05-19T12:47:04.000Z,30.5
2018-05-19T12:48:04.000Z,30.5
2018-05-19T12:49:04.000Z,30.5
2018-05-19T12:50:04.000Z,30.6
2018-05-19T12:51:49.000Z,30.7
2018-05-19T12:53:04.000Z,30.6
2018-05-19T12:54:04.000Z,30.6
2018-05-19T12:55:04.000Z,30.6
2018-05-19T12:57:04.000Z,30.6
2018-05-19T12:58:04.000Z,30.6
2018-05-19T13:00:04.000Z,30.6
2018-05-19T13:02:04.000Z,30.5
2018-05-19T13:04:04.000Z,30.4
2018-05-19T13:06:04.000Z,30.4
2018-05-19T13:07:04.000Z,30.4
2018-05-19T13:08:04.000Z,30.4
2018-05-19T13:10:04.000Z,30.5
2018-05-19T13:11:04.000Z,30.5
2018-05-19T13:13:04.000Z,30.5
2018-05-19T13:14:04.000Z,30.5
2018-05-19T13:15:04.000Z,30.5
2018-05-19T13:17:04.000Z,30.6
2018-05-19T13:19:04.000Z,30.5
2018-05-19T13:21:04.000Z,30.5
2018-05-19T13:23:04.000Z,30.4
2018-05-19T13:25:04.000Z,30.4
2018-05-19T13:27:04.000Z,30.3
2018-05-19T13:28:04.000Z,30.3
2018-05-19T13:29:04.000Z,30.3
2018-05-19T13:30:04.000Z,30.4
2018-05-19T13:31:49.000Z,30.4
2018-05-19T13:33:05.000Z,30.4
2018-05-19T13:34:05.000Z,30.4
2018-05-19T13:35:49.000Z,30.5
2018-05-19T13:37:05.000Z,30.5
2018-05-19T13:38:05.000Z,30.5
2018-05-19T13:40:05.000Z,30.5
2018-05-19T13:42:05.000Z,30.4
2018-05-19T13:44:05.000Z,30.4
2018-05-19T13:45:05.000Z,30.4
2018-05-19T13:47:05.000Z,30.4
2018-05-19T13:49:05.000Z,30.3
2018-05-19T13:51:05.000Z,30.3
2018-05-19T13:53:05.000Z,30.2
2018-05-19T13:55:05.000Z,30.2
2018-05-19T13:57:05.000Z,30.2
2018-05-19T13:58:05.000Z,30.2
2018-05-19T14:00:05.000Z,30.3
2018-05-19T14:02:05.000Z,30.3
2018-05-19T14:04:05.000Z,30.2
2018-05-19T14:05:05.000Z,30.2
2018-05-19T14:07:05.000Z,30.2
2018-05-19T14:09:05.000Z,30.3
2018-05-19T14:10:05.000Z,30.3
2018-05-19T14:12:05.000Z,30.3
2018-05-19T14:13:05.000Z,30.3
2018-05-19T14:14:49.000Z,30.3
2018-05-19T14:16:05.000Z,30.3
2018-05-19T14:17:05.000Z,30.3
2018-05-19T14:18:05.000Z,30.4
2018-05-19T14:19:49.000Z,30.5
2018-05-19T14:21:05.000Z,30.4
2018-05-19T14:22:05.000Z,30.4
2018-05-19T14:24:05.000Z,30.5
2018-05-19T14:25:05.000Z,30.5
2018-05-19T14:26:05.000Z,30.5
2018-05-19T14:28:05.000Z,30.5
2018-05-19T14:30:05.000Z,30.5
2018-05-19T14:31:05.000Z,30.5
2018-05-19T14:33:05.000Z,30.5
2018-05-19T14:34:05.000Z,30.5
2018-05-19T14:35:05.000Z,30.5
2018-05-19T14:37:05.000Z,30.5
2018-05-19T14:38:05.000Z,30.5
2018-05-19T14:39:49.000Z,30.5
2018-05-19T14:41:05.000Z,30.4
2018-05-19T14:42:05.000Z,30.4
2018-05-19T14:44:05.000Z,30.5
2018-05-19T14:46:05.000Z,30.4
2018-05-19T14:48:05.000Z,30.4
2018-05-19T14:49:05.000Z,30.4
2018-05-19T14:51:05.000Z,30.4
2018-05-19T14:52:05.000Z,30.4
2018-05-19T14:54:05.000Z,30.4
2018-05-19T14:55:05.000Z,30.4
2018-05-19T14:57:05.000Z,30.5
2018-05-19T14:59:05.000Z,30.4
2018-05-19T15:00:05.000Z,30.4
2018-05-19T15:01:05.000Z,30.5
2018-05-19T15:03:05.000Z,30.5
2018-05-19T15:04:05.000Z,30.5
2018-05-19T15:06:05.000Z,30.5
2018-05-19T15:07:05.000Z,30.5
2018-05-19T15:09:05.000Z,30.4
2018-05-19T15:11:05.000Z,30.3
2018-05-19T15:13:05.000Z,30.1
2018-05-19T15:15:05.000Z,30
2018-05-19T15:17:05.000Z,30
2018-05-19T15:18:49.000Z,30
2018-05-19T15:20:05.000Z,30
2018-05-19T15:21:05.000Z,30
2018-05-19T15:23:05.000Z,30.1
2018-05-19T15:24:05.000Z,30.2
2018-05-19T15:25:05.000Z,30.2
2018-05-19T15:26:05.000Z,30.3
2018-05-19T15:28:05.000Z,30.4
2018-05-19T15:30:05.000Z,30.4
2018-05-19T15:32:05.000Z,30.3
2018-05-19T15:34:05.000Z,30.2
2018-05-19T15:36:05.000Z,30.2
2018-05-19T15:38:05.000Z,30.1
2018-05-19T15:39:04.000Z,30.1
2018-05-19T15:40:04.000Z,30.1
2018-05-19T15:42:04.000Z,30.1
2018-05-19T15:44:04.000Z,30.1
2018-05-19T15:45:04.000Z,30
2018-05-19T15:46:04.000Z,30.1
2018-05-19T15:47:04.000Z,30.1
2018-05-19T15:49:04.000Z,30.2
2018-05-19T15:50:04.000Z,30.2
2018-05-19T15:52:04.000Z,30.3
2018-05-19T15:53:49.000Z,30.3
2018-05-19T15:55:04.000Z,30.2
2018-05-19T15:57:04.000Z,30.2
2018-05-19T15:58:04.000Z,30.2
2018-05-19T15:59:04.000Z,30.3
2018-05-19T16:01:04.000Z,30.3
2018-05-19T16:02:04.000Z,30.3
2018-05-19T16:04:04.000Z,30.2
2018-05-19T16:06:04.000Z,30.1
2018-05-19T16:08:04.000Z,30.1
2018-05-19T16:10:04.000Z,30
2018-05-19T16:12:04.000Z,30
2018-05-19T16:14:04.000Z,30
2018-05-19T16:15:49.000Z,30
2018-05-19T16:17:04.000Z,30
2018-05-19T16:19:04.000Z,30
2018-05-19T16:20:04.000Z,30
2018-05-19T16:21:04.000Z,30.1
2018-05-19T16:23:04.000Z,30.2
2018-05-19T16:24:04.000Z,30.2
2018-05-19T16:26:04.000Z,30.3
2018-05-19T16:27:04.000Z,30.3
2018-05-19T16:28:04.000Z,30.3
2018-05-19T16:30:04.000Z,30.3
2018-05-19T16:32:04.000Z,30.2
2018-05-19T16:33:49.000Z,30.1
2018-05-19T16:35:04.000Z,30.1
2018-05-19T16:37:04.000Z,30
2018-05-19T16:39:04.000Z,30
2018-05-19T16:41:04.000Z,30
2018-05-19T16:42:04.000Z,30
2018-05-19T16:44:05.000Z,30
2018-05-19T16:46:05.000Z,30
2018-05-19T16:48:05.000Z,30
2018-05-19T16:49:05.000Z,30
2018-05-19T16:50:05.000Z,30
2018-05-19T16:52:05.000Z,30.1
2018-05-19T16:53:05.000Z,30.1
2018-05-19T16:54:05.000Z,30.2
2018-05-19T16:56:05.000Z,30.3
2018-05-19T16:58:05.000Z,30.2
2018-05-19T17:00:05.000Z,30.2
2018-05-19T17:02:05.000Z,30.2
2018-05-19T17:03:05.000Z,30.3
2018-05-19T17:04:05.000Z,30.3
2018-05-19T17:06:05.000Z,30.4
2018-05-19T17:07:05.000Z,30.4
2018-05-19T17:08:05.000Z,30.5
2018-05-19T17:10:05.000Z,30.5
2018-05-19T17:11:05.000Z,30.6
2018-05-19T17:12:05.000Z,30.6
2018-05-19T17:14:05.000Z,30.7
2018-05-19T17:15:49.000Z,30.7
2018-05-19T17:17:05.000Z,30.6
2018-05-19T17:18:05.000Z,30.6
2018-05-19T17:19:05.000Z,30.7
2018-05-19T17:21:05.000Z,30.8
2018-05-19T17:22:05.000Z,30.8
2018-05-19T17:24:05.000Z,30.7
2018-05-19T17:25:05.000Z,30.7
2018-05-19T17:27:05.000Z,30.7
2018-05-19T17:29:05.000Z,30.6
2018-05-19T17:31:05.000Z,30.6
2018-05-19T17:33:05.000Z,30.5
2018-05-19T17:34:05.000Z,30.5
2018-05-19T17:36:05.000Z,30.6
2018-05-19T17:37:05.000Z,30.6
2018-05-19T17:38:05.000Z,30.6
2018-05-19T17:39:05.000Z,30.7
2018-05-19T17:40:05.000Z,30.7
2018-05-19T17:42:05.000Z,30.7
2018-05-19T17:43:05.000Z,30.7
2018-05-19T17:44:05.000Z,30.7
2018-05-19T17:46:04.000Z,30.7
2018-05-19T17:47:04.000Z,30.7
2018-05-19T17:49:04.000Z,30.7
2018-05-19T17:51:04.000Z,30.6
2018-05-19T17:52:04.000Z,30.6
2018-05-19T17:54:04.000Z,30.6
2018-05-19T17:56:04.000Z,30.5
2018-05-19T17:58:04.000Z,30.5
2018-05-19T17:59:04.000Z,30.4
2018-05-19T18:01:04.000Z,30.5
2018-05-19T18:02:04.000Z,30.5
2018-05-19T18:03:04.000Z,30.5
2018-05-19T18:04:04.000Z,30.6
2018-05-19T18:06:04.000Z,30.6
2018-05-19T18:08:04.000Z,30.6
2018-05-19T18:10:04.000Z,30.5
2018-05-19T18:11:04.000Z,30.5
2018-05-19T18:13:04.000Z,30.5
2018-05-19T18:14:04.000Z,30.4
2018-05-19T18:16:04.000Z,30.4
2018-05-19T18:18:04.000Z,30.3
2018-05-19T18:19:04.000Z,30.3
2018-05-19T18:20:49.000Z,30.3
2018-05-19T18:22:04.000Z,30.3
2018-05-19T18:24:04.000Z,30.2
2018-05-19T18:25:04.000Z,30.2
2018-05-19T18:26:04.000Z,30.2
2018-05-19T18:28:04.000Z,30.2
2018-05-19T18:29:04.000Z,30.2
2018-05-19T18:30:04.000Z,30.3
2018-05-19T18:32:04.000Z,30.4
2018-05-19T18:34:04.000Z,30.3
2018-05-19T18:35:04.000Z,30.3
2018-05-19T18:36:04.000Z,30.3
2018-05-19T18:38:04.000Z,30.4
2018-05-19T18:40:04.000Z,30.3
2018-05-19T18:41:49.000Z,30.2
2018-05-19T18:43:04.000Z,30.1
2018-05-19T18:44:04.000Z,30.1
2018-05-19T18:46:04.000Z,30.1
2018-05-19T18:48:04.000Z,30.1
2018-05-19T18:50:04.000Z,30
2018-05-19T18:51:04.000Z,30
2018-05-19T18:53:04.000Z,30
2018-05-19T18:55:04.000Z,30
2018-05-19T18:57:04.000Z,29.9
2018-05-19T18:58:49.000Z,29.9
2018-05-19T19:00:04.000Z,29.9
2018-05-19T19:01:04.000Z,29.9
2018-05-19T19:03:04.000Z,29.9
2018-05-19T19:04:04.000Z,30
2018-05-19T19:06:04.000Z,30
2018-05-19T19:07:04.000Z,30
2018-05-19T19:09:04.000Z,29.9
2018-05-19T19:11:04.000Z,29.9
2018-05-19T19:13:04.000Z,29.9
2018-05-19T19:14:04.000Z,29.9
2018-05-19T19:15:04.000Z,29.9
2018-05-19T19:17:04.000Z,30
2018-05-19T19:18:04.000Z,30
2018-05-19T19:19:04.000Z,30.1
2018-05-19T19:20:49.000Z,30.1
2018-05-19T19:22:04.000Z,30.1
2018-05-19T19:24:04.000Z,30
2018-05-19T19:25:04.000Z,30
2018-05-19T19:26:04.000Z,30.1
2018-05-19T19:28:04.000Z,30
2018-05-19T19:29:04.000Z,30
2018-05-19T19:30:49.000Z,30
2018-05-19T19:32:04.000Z,30
2018-05-19T19:33:04.000Z,30
2018-05-19T19:35:04.000Z,30
2018-05-19T19:37:04.000Z,30
2018-05-19T19:38:04.000Z,29.9
2018-05-19T19:39:04.000Z,30
2018-05-19T19:41:04.000Z,30
2018-05-19T19:43:04.000Z,29.9
2018-05-19T19:44:04.000Z,29.9
2018-05-19T19:45:04.000Z,29.8
2018-05-19T19:47:04.000Z,29.8
2018-05-19T19:48:04.000Z,29.8
2018-05-19T19:50:04.000Z,29.8
2018-05-19T19:51:04.000Z,29.8
2018-05-19T19:53:04.000Z,29.9
2018-05-19T19:55:04.000Z,29.9
2018-05-19T19:57:04.000Z,29.8
2018-05-19T19:58:04.000Z,29.7
2018-05-19T20:00:04.000Z,29.7
2018-05-19T20:05:04.000Z,29.2
2018-05-19T20:06:50.000Z,29.1
2018-05-19T20:07:50.000Z,29.2
2018-05-19T20:08:50.000Z,29.3
2018-05-19T20:09:50.000Z,29.4
2018-05-19T20:11:50.000Z,29.5
2018-05-19T20:12:50.000Z,29.5
2018-05-19T20:13:50.000Z,29.6
2018-05-19T20:15:50.000Z,29.7
2018-05-19T20:17:50.000Z,29.7
2018-05-19T20:19:50.000Z,29.6
2018-05-19T20:20:50.000Z,29.6
2018-05-19T20:22:50.000Z,29.7
2018-05-19T20:24:50.000Z,29.6
2018-05-19T20:25:50.000Z,29.6
2018-05-19T20:26:50.000Z,29.7
2018-05-19T20:28:50.000Z,29.8
2018-05-19T20:29:50.000Z,29.8
2018-05-19T20:31:50.000Z,29.8
2018-05-19T20:32:50.000Z,29.8
2018-05-19T20:33:50.000Z,29.8
2018-05-19T20:35:50.000Z,29.8
2018-05-19T20:36:50.000Z,29.8
2018-05-19T20:37:50.000Z,29.9
2018-05-19T20:39:50.000Z,29.9
2018-05-19T20:40:50.000Z,29.9
2018-05-19T20:42:34.000Z,29.9
2018-05-19T20:43:50.000Z,29.9
2018-05-19T20:45:50.000Z,29.7
2018-05-19T20:47:50.000Z,29.6
2018-05-19T20:48:50.000Z,29.6
2018-05-19T20:49:50.000Z,29.7
2018-05-19T20:51:50.000Z,29.7
2018-05-19T20:52:50.000Z,29.7
2018-05-19T20:53:50.000Z,29.8
2018-05-19T20:55:50.000Z,29.8
2018-05-19T20:57:50.000Z,29.7
2018-05-19T20:58:50.000Z,29.7
2018-05-19T21:00:50.000Z,29.6
2018-05-19T21:02:50.000Z,29.5
2018-05-19T21:04:50.000Z,29.4
2018-05-19T21:06:50.000Z,29.3
2018-05-19T21:07:50.000Z,29.3